createdAt,value
2018-06-25T00:01:34.078Z,16.20
2018-06-25T00:04:03.036Z,16.20
2018-06-25T00:06:32.049Z,16.30
2018-06-25T00:09:01.101Z,16.30
2018-06-25T00:11:30.176Z,16.20
2018-06-25T00:13:59.146Z,16.20
2018-06-25T00:16:28.145Z,16.20
2018-06-25T00:18:57.280Z,16.20
2018-06-25T00:21:26.272Z,16.30
2018-06-25T00:23:55.435Z,16.30
2018-06-25T00:26:24.381Z,16.30
2018-06-25T00:28:53.407Z,16.40
2018-06-25T00:31:22.407Z,16.40
2018-06-25T00:33:51.362Z,16.30
2018-06-25T00:36:20.350Z,16.30
2018-06-25T00:38:49.354Z,16.30
2018-06-25T00:41:18.373Z,16.30
2018-06-25T00:43:47.345Z,16.30
2018-06-25T00:46:16.337Z,16.30
2018-06-25T00:48:45.361Z,16.30
2018-06-25T00:51:14.345Z,16.30
2018-06-25T00:53:43.301Z,16.20
2018-06-25T00:56:12.301Z,16.30
2018-06-25T00:58:52.841Z,16.20
2018-06-25T01:01:21.853Z,16.30
2018-06-25T01:03:50.867Z,16.30
2018-06-25T01:06:19.873Z,16.30
2018-06-25T01:08:48.881Z,16.20
2018-06-25T01:13:46.615Z,16.30
2018-06-25T01:16:15.693Z,16.20
2018-06-25T01:18:44.787Z,16.20
2018-06-25T01:21:13.781Z,16.20
2018-06-25T01:23:42.785Z,16.10
2018-06-25T01:26:11.743Z,16.10
2018-06-25T01:28:40.737Z,16.10
2018-06-25T01:31:09.734Z,16.10
2018-06-25T01:33:38.734Z,16.20
2018-06-25T01:36:07.717Z,16.20
2018-06-25T01:38:37.250Z,16.10
2018-06-25T01:41:06.265Z,16.00
2018-06-25T01:43:35.331Z,16.00
2018-06-25T01:46:04.721Z,15.90
2018-06-25T01:48:33.703Z,16.00
2018-06-25T01:51:02.826Z,16.00
2018-06-25T01:53:31.805Z,15.90
2018-06-25T01:56:00.767Z,15.80
2018-06-25T01:58:30.929Z,15.70
2018-06-25T02:00:59.945Z,15.60
2018-06-25T02:03:28.973Z,15.50
2018-06-25T02:05:57.937Z,15.50
2018-06-25T02:08:26.969Z,15.40
2018-06-25T02:10:56.013Z,15.40
2018-06-25T02:13:25.022Z,15.40
2018-06-25T02:15:54.072Z,15.30
2018-06-25T02:18:23.071Z,15.40
2018-06-25T02:20:52.057Z,15.40
2018-06-25T02:23:21.415Z,15.40
2018-06-25T02:25:50.464Z,15.30
2018-06-25T02:28:19.447Z,15.30
2018-06-25T02:30:48.521Z,15.30
2018-06-25T02:33:17.520Z,15.20
2018-06-25T02:35:46.535Z,15.20
2018-06-25T02:38:15.518Z,15.20
2018-06-25T02:40:44.529Z,15.20
2018-06-25T02:43:13.563Z,15.10
2018-06-25T02:45:42.537Z,15.10
2018-06-25T02:48:11.686Z,15.10
2018-06-25T02:50:40.669Z,15.00
2018-06-25T02:53:09.708Z,15.00
2018-06-25T02:55:38.791Z,15.00
2018-06-25T02:58:07.886Z,15.00
2018-06-25T03:00:36.879Z,14.90
2018-06-25T03:03:06.261Z,14.90
2018-06-25T03:05:35.381Z,14.80
2018-06-25T03:08:04.366Z,14.70
2018-06-25T03:10:33.353Z,14.70
2018-06-25T03:13:02.361Z,14.70
2018-06-25T03:15:31.337Z,14.70
2018-06-25T03:18:00.433Z,14.80
2018-06-25T03:20:29.458Z,14.80
2018-06-25T03:22:58.472Z,14.70
2018-06-25T03:25:27.466Z,14.70
2018-06-25T03:27:56.450Z,14.70
2018-06-25T03:30:25.429Z,14.70
2018-06-25T03:32:54.468Z,14.70
2018-06-25T03:35:23.426Z,14.80
2018-06-25T03:37:52.446Z,14.80
2018-06-25T03:40:21.440Z,14.70
2018-06-25T03:42:50.574Z,14.80
2018-06-25T03:45:19.976Z,14.70
2018-06-25T03:47:48.950Z,14.70
2018-06-25T03:50:17.944Z,14.70
2018-06-25T03:55:15.806Z,14.60
2018-06-25T03:57:44.782Z,14.70
2018-06-25T04:00:13.796Z,14.60
2018-06-25T04:02:42.807Z,14.70
2018-06-25T04:05:11.824Z,14.60
2018-06-25T04:07:40.791Z,14.60
2018-06-25T04:10:09.914Z,14.70
2018-06-25T04:12:38.905Z,14.80
2018-06-25T04:15:08.088Z,14.80
2018-06-25T04:17:37.128Z,14.80
2018-06-25T04:20:06.130Z,14.90
2018-06-25T04:22:35.136Z,14.90
2018-06-25T04:25:04.140Z,15.00
2018-06-25T04:27:33.102Z,15.00
2018-06-25T04:30:02.082Z,15.10
2018-06-25T04:32:31.085Z,15.20
2018-06-25T04:35:00.104Z,15.20
2018-06-25T04:37:29.061Z,15.30
2018-06-25T04:39:58.038Z,15.30
2018-06-25T04:42:27.065Z,15.40
2018-06-25T04:44:56.099Z,15.50
2018-06-25T04:47:25.126Z,15.50
2018-06-25T04:49:54.157Z,15.50
2018-06-25T04:52:23.153Z,15.50
2018-06-25T04:54:52.147Z,15.60
2018-06-25T04:57:21.395Z,15.70
2018-06-25T04:59:50.478Z,15.80
2018-06-25T05:02:19.579Z,15.80
2018-06-25T05:04:48.577Z,15.90
2018-06-25T05:07:17.563Z,16.00
2018-06-25T05:09:46.597Z,16.10
2018-06-25T05:12:15.591Z,16.20
2018-06-25T05:14:44.609Z,16.30
2018-06-25T05:17:13.577Z,16.30
2018-06-25T05:19:42.549Z,16.30
2018-06-25T05:22:11.631Z,16.30
2018-06-25T05:24:40.727Z,16.30
2018-06-25T05:27:09.763Z,16.20
2018-06-25T05:29:38.779Z,16.20
2018-06-25T05:32:07.764Z,16.10
2018-06-25T05:34:36.780Z,16.10
2018-06-25T05:37:05.772Z,16.10
2018-06-25T05:39:34.799Z,16.10
2018-06-25T05:42:03.889Z,16.10
2018-06-25T05:44:32.923Z,16.10
2018-06-25T05:47:01.869Z,16.10
2018-06-25T05:49:30.879Z,16.10
2018-06-25T05:52:00.218Z,16.00
2018-06-25T05:54:29.210Z,16.10
2018-06-25T05:56:58.231Z,16.00
2018-06-25T05:59:27.227Z,16.00
2018-06-25T06:01:56.201Z,15.90
2018-06-25T06:04:25.217Z,16.00
2018-06-25T06:06:54.172Z,16.10
2018-06-25T06:09:23.192Z,16.20
2018-06-25T06:11:52.295Z,16.20
2018-06-25T06:14:21.286Z,16.30
2018-06-25T06:16:50.320Z,16.30
2018-06-25T06:19:19.326Z,16.30
2018-06-25T06:21:48.277Z,16.20
2018-06-25T06:24:17.352Z,16.40
2018-06-25T06:26:46.277Z,16.40
2018-06-25T06:29:15.367Z,16.50
2018-06-25T06:31:44.361Z,16.60
2018-06-25T06:34:13.424Z,16.70
2018-06-25T06:36:42.421Z,16.80
2018-06-25T06:39:14.925Z,16.90
2018-06-25T06:41:45.330Z,17.00
2018-06-25T06:44:14.826Z,17.10
2018-06-25T06:46:43.868Z,17.20
2018-06-25T06:49:12.888Z,17.30
2018-06-25T06:51:42.332Z,17.40
2018-06-25T06:54:11.368Z,17.60
2018-06-25T06:56:40.406Z,17.60
2018-06-25T06:59:09.365Z,17.70
2018-06-25T07:01:38.332Z,17.80
2018-06-25T07:04:07.338Z,17.80
2018-06-25T07:06:36.381Z,17.80
2018-06-25T07:09:08.674Z,17.70
2018-06-25T07:11:37.771Z,17.80
2018-06-25T07:14:07.646Z,17.90
2018-06-25T07:16:37.089Z,18.00
2018-06-25T07:19:06.115Z,18.10
2018-06-25T07:21:35.088Z,18.00
2018-06-25T07:24:04.123Z,18.00
2018-06-25T07:26:33.153Z,17.90
2018-06-25T07:29:02.112Z,18.10
2018-06-25T07:31:31.076Z,18.00
2018-06-25T07:34:00.055Z,18.20
2018-06-25T07:36:29.076Z,18.30
2018-06-25T07:38:58.068Z,18.40
2018-06-25T07:41:27.070Z,18.50
2018-06-25T07:43:56.071Z,18.70
2018-06-25T07:46:25.144Z,18.70
2018-06-25T07:48:54.270Z,18.80
2018-06-25T07:51:23.290Z,18.80
2018-06-25T07:53:52.388Z,18.80
2018-06-25T07:56:21.490Z,19.00
2018-06-25T07:58:50.584Z,19.00
2018-06-25T08:01:19.556Z,19.00
2018-06-25T08:03:48.632Z,19.10
2018-06-25T08:06:17.769Z,19.20
2018-06-25T08:08:46.747Z,19.30
2018-06-25T08:11:15.858Z,19.50
2018-06-25T08:13:45.036Z,19.60
2018-06-25T08:18:42.818Z,19.70
2018-06-25T08:21:11.768Z,19.80
2018-06-25T08:23:40.854Z,20.00
2018-06-25T08:26:09.891Z,20.10
2018-06-25T08:31:07.498Z,20.40
2018-06-25T08:33:36.485Z,20.60
2018-06-25T08:36:05.529Z,20.60
2018-06-25T08:38:34.541Z,20.60
2018-06-25T08:41:03.513Z,20.60
2018-06-25T08:43:32.523Z,20.60
2018-06-25T08:46:01.574Z,20.60
2018-06-25T08:48:30.621Z,20.40
2018-06-25T08:50:59.621Z,20.40
2018-06-25T08:53:28.617Z,20.50
2018-06-25T08:58:26.290Z,20.60
2018-06-25T09:00:55.269Z,20.60
2018-06-25T09:03:24.305Z,20.60
2018-06-25T09:05:53.341Z,20.70
2018-06-25T09:08:22.447Z,20.60
2018-06-25T09:10:51.486Z,20.70
2018-06-25T09:13:20.717Z,20.80
2018-06-25T09:15:49.746Z,21.00
2018-06-25T09:18:18.782Z,21.20
2018-06-25T09:20:47.783Z,21.40
2018-06-25T09:23:16.737Z,21.50
2018-06-25T09:25:45.762Z,21.60
2018-06-25T09:28:14.785Z,21.50
2018-06-25T09:30:43.847Z,21.60
2018-06-25T09:33:12.859Z,21.70
2018-06-25T09:35:42.038Z,21.70
2018-06-25T09:38:11.049Z,21.80
2018-06-25T09:40:40.021Z,21.80
2018-06-25T09:43:09.045Z,21.80
2018-06-25T09:45:38.045Z,21.70
2018-06-25T09:48:07.122Z,21.70
2018-06-25T09:50:36.117Z,21.70
2018-06-25T09:53:05.399Z,21.70
2018-06-25T09:55:34.509Z,21.80
2018-06-25T09:58:03.554Z,21.80
2018-06-25T10:00:37.912Z,21.80
2018-06-25T10:03:07.272Z,21.90
2018-06-25T10:05:36.309Z,22.00
2018-06-25T10:08:05.313Z,22.20
2018-06-25T10:10:34.386Z,22.30
2018-06-25T10:13:03.485Z,22.50
2018-06-25T10:15:32.560Z,22.40
2018-06-25T10:18:01.677Z,22.30
2018-06-25T10:20:30.653Z,22.50
2018-06-25T10:22:59.592Z,22.60
2018-06-25T10:25:28.709Z,22.80
2018-06-25T10:27:57.700Z,22.90
2018-06-25T10:30:26.704Z,23.00
2018-06-25T10:32:55.719Z,23.30
2018-06-25T10:35:24.737Z,23.40
2018-06-25T10:37:53.761Z,23.40
2018-06-25T10:40:22.922Z,23.30
2018-06-25T10:42:52.544Z,23.40
2018-06-25T10:45:21.540Z,23.60
2018-06-25T10:47:50.542Z,23.60
2018-06-25T10:50:19.548Z,23.70
2018-06-25T10:52:48.607Z,23.90
2018-06-25T10:55:17.696Z,24.10
2018-06-25T10:57:46.752Z,24.00
2018-06-25T11:00:16.015Z,23.90
2018-06-25T11:02:44.884Z,24.00
2018-06-25T11:05:13.892Z,24.00
2018-06-25T11:07:43.159Z,24.10
2018-06-25T11:10:11.912Z,24.00
2018-06-25T11:12:40.982Z,23.80
2018-06-25T11:15:10.021Z,23.60
2018-06-25T11:17:39.252Z,23.50
2018-06-25T11:20:08.262Z,23.60
2018-06-25T11:22:37.342Z,23.70
2018-06-25T11:25:06.460Z,23.90
2018-06-25T11:27:35.593Z,23.90
2018-06-25T11:30:04.570Z,24.00
2018-06-25T11:32:33.536Z,23.90
2018-06-25T11:35:02.520Z,24.00
2018-06-25T11:37:31.611Z,24.00
2018-06-25T11:40:00.633Z,23.70
2018-06-25T11:42:29.915Z,23.70
2018-06-25T11:45:02.216Z,23.90
2018-06-25T11:47:31.272Z,23.80
2018-06-25T11:50:00.368Z,23.70
2018-06-25T11:52:29.414Z,23.60
2018-06-25T11:54:58.389Z,23.70
2018-06-25T11:57:27.424Z,23.80
2018-06-25T11:59:56.799Z,23.90
2018-06-25T12:02:26.013Z,23.90
2018-06-25T12:04:55.041Z,24.00
2018-06-25T12:07:24.137Z,23.90
2018-06-25T12:09:53.107Z,23.80
2018-06-25T12:12:22.100Z,23.80
2018-06-25T12:14:51.113Z,24.00
2018-06-25T12:17:20.209Z,24.00
2018-06-25T12:19:49.291Z,24.10
2018-06-25T12:22:18.273Z,23.90
2018-06-25T12:24:47.293Z,23.60
2018-06-25T12:27:16.391Z,23.40
2018-06-25T12:29:45.391Z,23.50
2018-06-25T12:32:14.395Z,23.60
2018-06-25T12:34:43.401Z,23.70
2018-06-25T12:37:12.493Z,23.60
2018-06-25T12:39:41.560Z,23.70
2018-06-25T12:42:10.551Z,23.50
2018-06-25T12:44:39.521Z,23.30
2018-06-25T12:47:08.757Z,23.20
2018-06-25T12:49:37.777Z,23.40
2018-06-25T12:52:06.766Z,23.50
2018-06-25T12:54:35.746Z,23.60
2018-06-25T12:57:04.870Z,23.70
2018-06-25T12:59:33.951Z,23.80
2018-06-25T13:02:02.941Z,23.90
2018-06-25T13:04:32.121Z,24.10
2018-06-25T13:07:01.149Z,24.10
2018-06-25T13:09:30.193Z,24.10
2018-06-25T13:11:59.203Z,24.20
2018-06-25T13:14:28.208Z,24.10
2018-06-25T13:16:57.346Z,24.00
2018-06-25T13:19:26.332Z,24.00
2018-06-25T13:21:55.338Z,23.90
2018-06-25T13:26:52.912Z,23.60
2018-06-25T13:29:21.982Z,23.70
2018-06-25T13:31:50.970Z,23.80
2018-06-25T13:34:19.949Z,23.60
2018-06-25T13:36:49.003Z,23.60
2018-06-25T13:39:18.019Z,23.50
2018-06-25T13:41:46.998Z,23.60
2018-06-25T13:44:15.980Z,23.60
2018-06-25T13:46:45.012Z,23.80
2018-06-25T13:49:14.004Z,24.00
2018-06-25T13:51:42.962Z,24.10
2018-06-25T13:54:12.042Z,24.30
2018-06-25T13:56:41.138Z,24.30
2018-06-25T13:59:10.368Z,24.30
2018-06-25T14:01:39.338Z,24.20
2018-06-25T14:04:08.368Z,24.30
2018-06-25T14:06:37.349Z,24.30
2018-06-25T14:09:08.186Z,24.30
2018-06-25T14:11:37.266Z,24.30
2018-06-25T14:14:07.090Z,24.30
2018-06-25T14:16:36.611Z,24.40
2018-06-25T14:19:05.598Z,24.30
2018-06-25T14:21:34.865Z,24.10
2018-06-25T14:25:11.032Z,24.20
2018-06-25T14:27:45.458Z,24.30
2018-06-25T14:30:19.975Z,24.20
2018-06-25T14:32:50.924Z,24.20
2018-06-25T14:35:19.992Z,24.20
2018-06-25T14:37:48.952Z,24.20
2018-06-25T14:40:18.032Z,24.30
2018-06-25T14:42:47.118Z,24.30
2018-06-25T14:45:16.339Z,24.50
2018-06-25T14:47:45.367Z,24.50
2018-06-25T14:50:14.376Z,24.60
2018-06-25T14:52:43.522Z,24.70
2018-06-25T14:55:12.501Z,24.80
2018-06-25T14:57:41.462Z,24.80
2018-06-25T15:00:10.495Z,24.90
2018-06-25T15:02:39.494Z,25.00
2018-06-25T15:05:08.462Z,24.90
2018-06-25T15:07:37.450Z,24.90
2018-06-25T15:10:06.508Z,24.80
2018-06-25T15:12:35.486Z,24.90
2018-06-25T15:15:04.498Z,24.90
2018-06-25T15:17:33.536Z,25.00
2018-06-25T15:20:02.673Z,25.00
2018-06-25T15:22:31.657Z,25.00
2018-06-25T15:25:00.753Z,25.00
2018-06-25T15:27:29.797Z,25.00
2018-06-25T15:29:58.825Z,25.00
2018-06-25T15:32:30.679Z,25.20
2018-06-25T15:34:59.709Z,25.10
2018-06-25T15:37:29.090Z,25.10
2018-06-25T15:39:58.776Z,25.30
2018-06-25T15:42:27.747Z,25.40
2018-06-25T15:44:56.765Z,25.50
2018-06-25T15:47:25.862Z,25.50
2018-06-25T15:49:55.269Z,25.50
2018-06-25T15:52:24.595Z,25.50
2018-06-25T15:54:53.745Z,25.50
2018-06-25T15:57:22.765Z,25.50
2018-06-25T15:59:51.772Z,25.50
2018-06-25T16:02:20.777Z,25.60
2018-06-25T16:04:49.835Z,25.70
2018-06-25T16:07:18.785Z,25.70
2018-06-25T16:09:47.806Z,25.90
2018-06-25T16:12:16.853Z,25.80
2018-06-25T16:14:45.829Z,25.60
2018-06-25T16:17:14.780Z,25.70
2018-06-25T16:19:43.809Z,25.60
2018-06-25T16:22:12.789Z,25.50
2018-06-25T16:24:41.783Z,25.60
2018-06-25T16:27:10.779Z,25.60
2018-06-25T16:29:39.788Z,25.70
2018-06-25T16:32:09.069Z,25.70
2018-06-25T16:34:38.062Z,25.70
2018-06-25T16:37:07.037Z,25.90
2018-06-25T16:39:36.008Z,25.90
2018-06-25T16:44:33.796Z,25.80
2018-06-25T16:47:02.824Z,25.90
2018-06-25T16:49:31.896Z,25.90
2018-06-25T16:54:29.685Z,25.90
2018-06-25T16:59:27.507Z,25.90
2018-06-25T17:01:56.538Z,25.90
2018-06-25T17:04:25.575Z,25.90
2018-06-25T17:06:54.568Z,25.70
2018-06-25T17:09:23.580Z,25.80
2018-06-25T17:11:52.554Z,25.80
2018-06-25T17:14:21.544Z,25.70
2018-06-25T17:16:50.520Z,25.70
2018-06-25T17:19:19.461Z,25.70
2018-06-25T17:21:48.510Z,25.60
2018-06-25T17:24:17.456Z,25.50
2018-06-25T17:26:46.430Z,25.50
2018-06-25T17:29:15.434Z,25.40
2018-06-25T17:31:44.418Z,25.50
2018-06-25T17:34:13.357Z,25.60
2018-06-25T17:36:42.380Z,25.60
2018-06-25T17:39:11.396Z,25.70
2018-06-25T17:41:40.414Z,25.60
2018-06-25T17:44:09.370Z,25.60
2018-06-25T17:46:38.374Z,25.60
2018-06-25T17:49:07.418Z,25.50
2018-06-25T17:51:36.458Z,25.30
2018-06-25T17:54:05.688Z,25.20
2018-06-25T17:56:34.696Z,25.20
2018-06-25T17:59:03.839Z,25.10
2018-06-25T18:01:32.934Z,25.20
2018-06-25T18:04:01.980Z,25.10
2018-06-25T18:06:30.957Z,25.10
2018-06-25T18:08:59.906Z,25.10
2018-06-25T18:11:29.003Z,25.00
2018-06-25T18:13:58.003Z,25.00
2018-06-25T18:16:29.126Z,24.70
2018-06-25T18:18:58.163Z,24.70
2018-06-25T18:21:27.203Z,24.60
2018-06-25T18:23:56.218Z,24.60
2018-06-25T18:26:25.173Z,24.70
2018-06-25T18:28:54.145Z,24.50
2018-06-25T18:31:23.168Z,24.50
2018-06-25T18:33:52.301Z,24.40
2018-06-25T18:36:21.277Z,24.40
2018-06-25T18:38:50.245Z,24.30
2018-06-25T18:41:19.307Z,24.30
2018-06-25T18:43:48.331Z,24.30
2018-06-25T18:46:17.317Z,24.30
2018-06-25T18:48:46.291Z,24.30
2018-06-25T18:51:15.341Z,24.20
2018-06-25T18:53:44.385Z,24.20
2018-06-25T18:56:13.397Z,24.20
2018-06-25T18:58:42.413Z,24.20
2018-06-25T19:01:11.427Z,24.20
2018-06-25T19:03:40.413Z,24.10
2018-06-25T19:06:10.351Z,24.00
2018-06-25T19:08:39.329Z,23.90
2018-06-25T19:11:08.537Z,24.00
2018-06-25T19:13:37.569Z,23.80
2018-06-25T19:16:06.585Z,23.70
2018-06-25T19:21:04.351Z,23.40
2018-06-25T19:23:33.412Z,23.10
2018-06-25T19:26:02.409Z,23.10
2018-06-25T19:28:31.470Z,22.90
2018-06-25T19:31:00.576Z,22.80
2018-06-25T19:33:29.653Z,22.70
2018-06-25T19:35:58.665Z,22.60
2018-06-25T19:38:27.672Z,22.40
2018-06-25T19:40:56.726Z,22.10
2018-06-25T19:43:25.853Z,22.10
2018-06-25T19:45:54.877Z,21.90
2018-06-25T19:48:24.297Z,21.90
2018-06-25T19:50:53.345Z,21.80
2018-06-25T19:53:22.352Z,21.70
2018-06-25T19:55:51.360Z,21.60
2018-06-25T19:58:20.331Z,21.50
2018-06-25T20:00:49.362Z,21.40
2018-06-25T20:03:18.392Z,21.30
2018-06-25T20:05:47.369Z,21.10
2018-06-25T20:08:16.455Z,21.00
2018-06-25T20:10:45.450Z,20.90
2018-06-25T20:13:14.486Z,20.80
2018-06-25T20:15:43.569Z,20.80
2018-06-25T20:18:12.500Z,20.70
2018-06-25T20:20:41.568Z,20.60
2018-06-25T20:23:10.584Z,20.60
2018-06-25T20:25:39.612Z,20.50
2018-06-25T20:28:08.549Z,20.50
2018-06-25T20:30:37.684Z,20.30
2018-06-25T20:33:06.702Z,20.30
2018-06-25T20:35:35.666Z,20.20
2018-06-25T20:38:06.506Z,20.10
2018-06-25T20:40:35.506Z,20.10
2018-06-25T20:43:04.557Z,20.00
2018-06-25T20:45:33.655Z,19.90
2018-06-25T20:48:02.747Z,19.80
2018-06-25T20:50:31.994Z,19.80
2018-06-25T20:53:01.056Z,19.70
2018-06-25T20:55:30.032Z,19.70
2018-06-25T20:57:58.990Z,19.50
2018-06-25T21:00:27.975Z,19.50
2018-06-25T21:02:57.016Z,19.40
2018-06-25T21:05:26.006Z,19.30
2018-06-25T21:07:54.998Z,19.30
2018-06-25T21:10:24.116Z,19.30
2018-06-25T21:12:53.155Z,19.20
2018-06-25T21:15:22.119Z,19.10
2018-06-25T21:17:51.200Z,19.00
2018-06-25T21:20:20.377Z,19.00
2018-06-25T21:22:49.471Z,18.90
2018-06-25T21:25:18.525Z,18.90
2018-06-25T21:27:47.560Z,18.90
2018-06-25T21:30:16.557Z,18.90
2018-06-25T21:32:45.521Z,18.90
2018-06-25T21:35:14.641Z,18.80
2018-06-25T21:37:43.601Z,18.80
2018-06-25T21:42:41.183Z,18.60
2018-06-25T21:45:10.209Z,18.60
2018-06-25T21:47:39.178Z,18.60
2018-06-25T21:50:08.134Z,18.60
2018-06-25T21:52:37.127Z,18.60
2018-06-25T21:55:06.521Z,18.50
2018-06-25T21:57:42.301Z,18.50
2018-06-25T22:00:13.073Z,18.50
2018-06-25T22:02:42.582Z,18.40
2018-06-25T22:05:11.593Z,18.40
2018-06-25T22:07:40.607Z,18.40
2018-06-25T22:10:09.609Z,18.30
2018-06-25T22:12:38.569Z,18.20
2018-06-25T22:15:07.985Z,18.20
2018-06-25T22:17:36.945Z,18.20
2018-06-25T22:20:05.982Z,18.10
2018-06-25T22:22:34.969Z,18.00
2018-06-25T22:25:03.991Z,18.00
2018-06-25T22:27:32.981Z,18.00
2018-06-25T22:30:01.965Z,17.90
2018-06-25T22:32:30.937Z,17.80
2018-06-25T22:34:59.933Z,17.80
2018-06-25T22:37:28.911Z,17.80
2018-06-25T22:39:57.987Z,17.70
2018-06-25T22:42:29.216Z,17.60
2018-06-25T22:44:58.241Z,17.60
2018-06-25T22:47:27.255Z,17.50
2018-06-25T22:49:56.171Z,17.50
2018-06-25T22:52:25.192Z,17.50
2018-06-25T22:54:54.188Z,17.50
2018-06-25T22:57:23.153Z,17.50
2018-06-25T22:59:52.113Z,17.40
2018-06-25T23:02:21.161Z,17.40
2018-06-25T23:04:50.161Z,17.30
2018-06-25T23:07:19.135Z,17.20
2018-06-25T23:09:48.106Z,17.30
2018-06-25T23:12:17.232Z,17.20
2018-06-25T23:14:46.262Z,17.20
2018-06-25T23:17:15.260Z,17.10
2018-06-25T23:19:44.226Z,17.10
2018-06-25T23:22:13.288Z,17.10
2018-06-25T23:24:43.432Z,17.10
2018-06-25T23:27:12.380Z,17.10
2018-06-25T23:29:41.350Z,17.00
2018-06-25T23:32:10.348Z,17.00
2018-06-25T23:34:39.348Z,17.00
2018-06-25T23:37:08.412Z,17.00
2018-06-25T23:39:37.392Z,16.90
2018-06-25T23:42:06.394Z,16.90
2018-06-25T23:44:35.392Z,16.80
2018-06-25T23:47:05.336Z,16.80
2018-06-25T23:49:34.380Z,16.80
2018-06-25T23:52:03.368Z,16.80
2018-06-25T23:54:32.410Z,16.80
2018-06-25T23:57:01.376Z,16.70
2018-06-25T23:59:30.360Z,16.70
